Latest Weather Observations for Penrith

IDN60901

Issued at 2:01 pm EST Monday 27 June 2016 (issued every 10 minutes, with the page automatically refreshed every 10 minutes)

About weather observations | Map of Sydney area stations | Latest observations for Sydney area | Other Formats
Station Details ID: 067113 Name: PENRITH LAKES AWS Lat: -33.72 Lon: 150.68 Height: 24.7 m
Data from the previous 72 hours. | See also: Recent months at Penrith
Date/Time
EST
Temp
°C
App
Temp
°C
Dew
Point
°C
Rel
Hum
%
Delta-T
°C
Wind Press
QNH
hPa
Press
MSL
hPa
Rain since
9am
mm
Dir  Spd
km/h
Gust
km/h
Spd
kts
Gust
kts
27/02:00pm 12.2 7.3 4.2 58 3.6 SW 19 28 10 15 - - 0.0
27/01:30pm 12.2 7.8 4.7 60 3.4 SW 17 28 9 15 - - 0.0
27/01:00pm 12.5 8.9 5.0 60 3.5 SW 13 22 7 12 - - 0.0
27/12:30pm 12.6 8.3 5.1 60 3.5 WSW 17 24 9 13 - - 0.0
27/12:00pm 12.2 10.2 6.9 70 2.5 NW 7 11 4 6 - - 0.0
27/11:30am 10.9 9.4 6.6 75 2.0 SSW 4 7 2 4 - - 0.0
27/11:00am 10.3 8.7 7.9 85 1.2 SE 6 7 3 4 - - 0.0
27/10:30am 9.3 7.9 7.4 88 0.9 S 4 6 2 3 - - 0.0
27/10:00am 8.8 7.3 6.8 87 0.9 SSE 4 4 2 2 - - 0.0
27/09:30am 8.6 7.0 6.4 86 1.0 WNW 4 6 2 3 - - 0.0
27/09:00am 8.5 6.4 5.8 83 1.2 WSW 6 11 3 6 - - 0.8
27/08:30am 8.6 7.7 6.1 84 1.1 CALM 0 4 0 2 - - 0.6
27/08:00am 8.6 7.8 6.4 86 1.0 CALM 0 2 0 1 - - 0.4
27/07:30am 9.0 7.3 5.9 81 1.4 NNW 4 7 2 4 - - 0.2
27/07:00am 8.7 7.4 6.2 84 1.1 N 2 4 1 2 - - 0.0
27/06:30am 8.5 6.4 6.6 88 0.9 SW 7 11 4 6 - - 0.0
27/06:00am 8.6 6.6 7.1 90 0.7 W 7 11 4 6 - - 0.0
27/05:30am 7.4 6.7 7.1 98 0.1 CALM 0 0 0 0 - - 0.0
27/05:00am 7.5 6.8 7.1 97 0.2 CALM 0 0 0 0 - - 0.0
27/04:30am 7.3 6.5 6.7 96 0.3 CALM 0 0 0 0 - - 0.0
27/04:00am 7.3 5.4 6.9 97 0.2 N 6 6 3 3 - - 0.0
27/03:30am 7.6 5.8 7.2 97 0.2 NNE 6 9 3 5 - - 0.0
27/03:00am 7.6 6.1 7.0 96 0.3 SSE 4 4 2 2 - - 0.0
27/02:30am 7.7 7.1 7.3 97 0.2 CALM 0 0 0 0 - - 0.0
27/02:00am 7.6 6.6 7.2 97 0.2 SSE 2 7 1 4 - - 0.0
27/01:30am 7.7 7.1 7.3 97 0.2 CALM 0 0 0 0 - - 0.0
27/01:00am 7.6 6.1 7.0 96 0.3 WSW 4 7 2 4 - - 0.0
27/12:30am 8.0 6.9 6.9 93 0.5 NNE 2 4 1 2 - - 0.0
27/12:00am 7.8 6.8 7.4 97 0.2 NNE 2 6 1 3 - - 0.0
 
Date/Time
EST
Temp
°C
App
Temp
°C
Dew
Point
°C
Rel
Hum
%
Delta-T
°C
Wind Press
QNH
hPa
Press
MSL
hPa
Rain since
9am
mm
Dir  Spd
km/h
Gust
km/h
Spd
kts
Gust
kts
26/11:30pm 7.8 6.4 7.2 96 0.3 N 4 6 2 3 - - 0.0
26/11:00pm 7.9 6.8 6.7 92 0.6 NW 2 4 1 2 - - 0.0
26/10:30pm 7.8 6.5 5.9 88 0.9 S 2 2 1 1 - - 0.0
26/10:00pm 7.9 5.8 5.9 87 0.9 SSW 6 7 3 4 - - 0.0
26/09:30pm 8.2 6.6 6.2 87 0.9 SSW 4 6 2 3 - - 0.0
26/09:00pm 8.6 7.8 6.7 88 0.9 CALM 0 0 0 0 - - 0.0
26/08:30pm 8.8 8.1 6.9 88 0.9 CALM 0 0 0 0 - - 0.0
26/08:00pm 9.2 8.5 7.0 86 1.0 CALM 0 0 0 0 - - 0.0
26/07:30pm 9.5 8.9 7.3 86 1.0 CALM 0 2 0 1 - - 0.0
26/07:00pm 9.3 8.1 6.4 82 1.3 WNW 2 4 1 2 - - 0.0
26/06:30pm 9.7 8.3 7.3 85 1.1 NW 4 6 2 3 - - 0.0
26/06:00pm 10.3 9.2 5.3 71 2.3 CALM 0 0 0 0 - - 0.0
26/05:30pm 10.3 9.4 6.1 75 1.9 CALM 0 0 0 0 - - 0.0
26/05:00pm 11.1 9.4 5.8 70 2.5 N 4 6 2 3 - - 0.0
26/04:30pm 11.8 9.4 5.4 65 3.0 N 7 7 4 4 - - 0.0
26/04:00pm 12.7 10.4 4.7 58 3.7 NNE 6 7 3 4 - - 0.0
26/03:30pm 12.9 10.5 4.3 56 3.9 N 6 9 3 5 - - 0.0
26/03:00pm 13.8 11.4 2.4 46 5.0 N 4 6 2 3 - - 0.0
26/02:30pm 14.3 12.7 2.5 45 5.2 CALM 0 0 0 0 - - 0.0
26/02:00pm 14.1 12.2 3.0 47 5.0 NW 2 4 1 2 - - 0.0
26/01:30pm 14.1 12.3 3.6 49 4.8 N 2 6 1 3 - - 0.0
26/01:00pm 13.5 12.2 4.1 53 4.3 CALM 0 2 0 1 - - 0.0
26/12:30pm 12.5 10.4 4.0 56 3.8 NW 4 4 2 2 - - 0.0
26/12:00pm 11.9 9.9 4.4 60 3.4 NW 4 6 2 3 - - 0.0
26/11:30am 11.3 9.2 4.1 61 3.2 NW 4 6 2 3 - - 0.0
26/11:00am 9.5 7.3 3.3 65 2.7 NNW 4 6 2 3 - - 0.0
26/10:30am 8.4 6.1 2.8 68 2.4 NW 4 4 2 2 - - 0.0
26/10:00am 7.3 5.1 3.2 75 1.7 N 4 6 2 3 - - 0.0
26/09:30am 6.6 5.2 3.6 81 1.3 CALM 0 0 0 0 - - 0.0
26/09:00am 5.1 3.7 3.6 90 0.6 CALM 0 0 0 0 - - 0.0
26/08:30am 3.3 0.6 2.9 97 0.2 S 6 7 3 4 - - 0.0
26/08:00am 2.3 -0.5 2.0 98 0.1 SSE 6 7 3 4 - - 0.0
26/07:30am 1.7 -0.1 1.3 97 0.2 CALM 0 2 0 1 - - 0.0
26/07:00am 1.5 -0.3 1.1 97 0.2 CALM 0 2 0 1 - - 0.0
26/06:30am 1.4 -0.8 1.0 97 0.1 NE 2 4 1 2 - - 0.0
26/06:00am 1.9 0.1 1.5 97 0.2 CALM 0 2 0 1 - - 0.0
26/05:30am 1.9 0.1 1.5 97 0.2 CALM 0 0 0 0 - - 0.0
26/05:00am 1.8 -0.3 1.4 97 0.2 ENE 2 4 1 2 - - 0.0
26/04:30am 1.9 -1.0 1.5 97 0.2 NE 6 7 3 4 - - 0.0
26/04:00am 2.1 -0.4 1.4 95 0.3 N 4 6 2 3 - - 0.0
26/03:30am 2.7 0.9 1.2 90 0.6 CALM 0 0 0 0 - - 0.0
26/03:00am 2.9 0.8 1.6 91 0.5 E 2 2 1 1 - - 0.0
26/02:30am 2.6 0.5 1.4 92 0.5 NE 2 4 1 2 - - 0.0
26/02:00am 3.4 1.0 2.4 93 0.4 SSW 4 6 2 3 - - 0.0
26/01:30am 4.0 2.0 2.5 90 0.6 SE 2 4 1 2 - - 0.0
26/01:00am 3.7 1.8 0.8 81 1.1 CALM 0 2 0 1 - - 0.0
26/12:30am 3.9 1.4 1.3 83 1.0 NNE 4 6 2 3 - - 0.0
26/12:00am 5.0 3.0 2.4 83 1.1 ESE 2 4 1 2 - - 0.0
 
Date/Time
EST
Temp
°C
App
Temp
°C
Dew
Point
°C
Rel
Hum
%
Delta-T
°C
Wind Press
QNH
hPa
Press
MSL
hPa
Rain since
9am
mm
Dir  Spd
km/h
Gust
km/h
Spd
kts
Gust
kts
25/11:30pm 5.1 2.8 0.5 72 1.8 ENE 2 4 1 2 - - 0.0
25/11:00pm 5.8 3.9 0.8 70 2.0 CALM 0 2 0 1 - - 0.0
25/10:30pm 5.5 2.9 1.1 73 1.7 NE 4 6 2 3 - - 0.0
25/10:00pm 6.1 3.4 0.6 68 2.2 ENE 4 6 2 3 - - 0.0
25/09:30pm 7.3 5.4 0.7 63 2.6 CALM 0 4 0 2 - - 0.0
25/09:00pm 7.0 4.4 0.7 64 2.5 SE 4 9 2 5 - - 0.0
25/08:30pm 9.5 6.1 -0.4 50 3.9 WSW 7 17 4 9 - - 0.0
25/08:00pm 8.5 5.8 0.0 55 3.4 SE 4 7 2 4 - - 0.0
25/07:30pm 9.2 5.1 0.1 53 3.6 SW 11 17 6 9 - - 0.0
25/07:00pm 9.1 5.5 0.3 54 3.5 WSW 9 15 5 8 - - 0.0
25/06:30pm 9.3 5.7 0.7 55 3.5 WSW 9 15 5 8 - - 0.0
25/06:00pm 9.2 6.5 0.6 55 3.5 SW 4 7 2 4 - - 0.0
25/05:30pm 9.4 6.1 0.1 52 3.7 SW 7 9 4 5 - - 0.0
25/05:00pm 11.2 7.4 -0.9 43 4.8 SW 9 13 5 7 - - 0.0
25/04:30pm 12.5 8.6 -1.4 38 5.6 SW 9 13 5 7 - - 0.0
25/04:00pm 13.3 9.0 -1.4 36 5.9 SSW 11 19 6 10 - - 0.0
25/03:30pm 13.8 9.1 -1.8 34 6.3 SSW 13 20 7 11 - - 0.0
25/03:00pm 14.0 8.6 -1.6 34 6.3 SW 17 22 9 12 - - 0.0
25/02:30pm 14.0 8.5 -2.4 32 6.5 SW 17 24 9 13 - - 0.0
25/02:00pm 14.3 8.9 -1.3 34 6.4 SW 17 26 9 14 - - 0.0
25/01:30pm 14.2 9.6 -1.4 34 6.3 SW 13 19 7 10 - - 0.0
25/01:00pm 13.8 8.0 -1.8 34 6.3 SW 19 30 10 16 - - 0.0
25/12:30pm 13.6 8.2 -1.6 35 6.1 SSW 17 28 9 15 - - 0.0
25/12:00pm 13.3 7.5 -1.8 35 6.0 SW 19 30 10 16 - - 0.0
25/11:30am 12.7 6.2 -2.3 35 5.9 SW 22 32 12 17 - - 0.0
25/11:00am 12.6 6.2 -1.7 37 5.7 SW 22 35 12 19 - - 0.0
25/10:30am 11.7 4.9 -2.1 38 5.4 SW 24 37 13 20 - - 0.0
25/10:00am 11.3 4.8 -2.1 39 5.2 SW 22 37 12 20 - - 0.0
25/09:30am 10.7 4.6 -2.3 40 5.0 WSW 20 33 11 18 - - 0.0
25/09:00am 10.0 4.2 -1.7 44 4.5 WSW 19 28 10 15 - - 0.2
25/08:30am 9.1 5.6 -1.0 49 3.9 WSW 7 17 4 9 - - 0.2
25/08:00am 7.4 4.0 -0.8 56 3.1 SSE 7 11 4 6 - - 0.2
25/07:30am 6.4 2.6 -1.0 59 2.8 SSE 9 17 5 9 - - 0.2
25/07:00am 5.1 1.8 -1.1 64 2.3 SSW 6 9 3 5 - - 0.2
25/06:30am 5.7 2.4 -1.0 62 2.5 WSW 6 7 3 4 - - 0.2
25/06:00am 6.4 2.5 -1.5 57 2.9 SW 9 19 5 10 - - 0.2
25/05:30am 7.3 2.2 -1.6 53 3.3 SSW 15 22 8 12 - - 0.2
25/05:00am 5.5 3.2 0.3 69 2.0 NNE 2 6 1 3 - - 0.2
25/04:30am 5.0 2.7 0.6 73 1.7 NNE 2 4 1 2 - - 0.2
25/04:00am 5.9 3.5 0.0 66 2.3 W 2 6 1 3 - - 0.2
25/03:30am 7.1 4.3 -0.6 58 3.0 W 4 6 2 3 - - 0.2
25/03:00am 8.1 4.3 -1.1 52 3.5 S 9 20 5 11 - - 0.2
25/02:30am 8.1 4.2 -1.4 51 3.6 S 9 17 5 9 - - 0.2
25/02:00am 8.7 3.7 -1.1 50 3.8 SW 15 30 8 16 - - 0.2
25/01:30am 9.0 4.7 -1.4 48 4.0 SW 11 17 6 9 - - 0.2
25/01:00am 8.7 4.5 -1.1 50 3.8 SW 11 26 6 14 - - 0.2
25/12:30am 9.1 5.2 -1.3 48 4.0 SW 9 17 5 9 - - 0.2
25/12:00am 9.3 4.8 -0.6 50 3.9 SW 13 28 7 15 - - 0.2
 
Date/Time
EST
Temp
°C
App
Temp
°C
Dew
Point
°C
Rel
Hum
%
Delta-T
°C
Wind Press
QNH
hPa
Press
MSL
hPa
Rain since
9am
mm
Dir  Spd
km/h
Gust
km/h
Spd
kts
Gust
kts
24/11:30pm 9.2 5.1 -0.4 51 3.8 SW 11 17 6 9 - - 0.2
24/11:00pm 9.0 4.5 -0.3 52 3.7 SSW 13 30 7 16 - - 0.2
24/10:30pm 9.6 5.1 -0.6 49 4.0 SW 13 22 7 12 - - 0.2
24/10:00pm 9.5 4.9 -0.7 49 4.0 WSW 13 24 7 13 - - 0.2
24/09:30pm 9.9 4.6 -0.6 48 4.2 WSW 17 32 9 17 - - 0.2
24/09:00pm 9.5 4.7 -0.1 51 3.8 W 15 28 8 15 - - 0.2
24/08:30pm 9.7 5.3 0.6 53 3.7 W 13 26 7 14 - - 0.2
24/08:00pm 8.3 5.4 1.5 62 2.8 SE 6 9 3 5 - - 0.2
24/07:30pm 8.7 6.2 1.8 62 2.9 WNW 4 7 2 4 - - 0.2
24/07:00pm 8.8 6.2 1.0 58 3.2 SE 4 7 2 4 - - 0.2
24/06:30pm 8.6 5.1 1.5 61 2.9 SE 9 15 5 8 - - 0.2
24/06:00pm 9.2 5.4 1.9 60 3.0 W 11 22 6 12 - - 0.2
24/05:30pm 9.7 2.3 1.6 57 3.4 W 30 44 16 24 - - 0.2
24/05:05pm 8.9 2.1 2.9 66 2.6 WNW 28 46 15 25 - - 0.2
24/05:00pm 8.8 1.3 3.2 68 2.4 WNW 32 46 17 25 - - 0.2
24/04:30pm 8.3 0.9 4.1 75 1.8 W 32 56 17 30 - - 0.2
24/04:15pm 10.3 3.5 3.3 62 3.0 W 28 54 15 29 - - 0.0
24/04:00pm 10.6 3.8 2.9 59 3.3 WNW 28 39 15 21 - - 0.0
24/03:30pm 11.7 1.6 1.6 50 4.3 WNW 44 65 24 35 - - 0.0
24/03:08pm 13.4 4.3 -0.3 39 5.7 WNW 37 72 20 39 - - 0.0
24/03:04pm 13.7 5.4 0.0 39 5.7 WNW 33 52 18 28 - - 0.0
24/03:00pm 13.8 5.2 0.5 40 5.6 WNW 35 52 19 28 - - 0.0
24/02:40pm 14.3 6.0 -0.2 37 6.1 WNW 33 61 18 33 - - 0.0
24/02:37pm 14.4 7.2 1.0 40 5.8 W 28 59 15 32 - - 0.0
24/02:30pm 14.7 8.4 1.3 40 5.8 W 24 43 13 23 - - 0.0

Latest Capital City Observations: Canberra | Sydney | Melbourne | Brisbane | Adelaide | Perth | Hobart | Darwin

Other Formats:

Comma delimited format used in spreadsheet applications
http://www.bom.gov.au/fwo/IDN60901/IDN60901.94763.axf

JavaScript Object Notation format (JSON) in row-major order
http://www.bom.gov.au/fwo/IDN60901/IDN60901.94763.json